Record high temperature 36.9°C Record low temperature -13.1°C Record high gust 62.9 km/h Record high average 34.6 km/h Record daily rain 34.8 mm Record low windchill -16.1°C Record high barometer 1044.0 hPa Record low barometer 980.8 hPa
Daily high pressure 1030.1 hPa Daily low pressure 1029.4 hPa Daily low windchill -2.0°C Daily high heat index 0.5°C Daily high gust speed 7.4 kmh WNW Daily high average speed 4.6 kmh W
Wetterdaten
LETZTE AKTUALISIERUNG UM: 07:15 DATUM: 29 Januar 2023, time of next update: 07:30
Aktuelles Wetterovercast/Night Aktuelle Temperatur -0.6°C (30.9°F), Apparent temp -2.4°C
Höchsttemperatur (seit Mitternacht)0.5°C um: 00:02 Tiefsttemperatur (seit Mitternacht)-0.6°C um: 07:11
Windgeschwindigkeit (10 Minuten )0.6 kmh (0.3 kts) Windrichtung (Dir) (10 Minuten )WNW (292°)
Windchill Temperatur -0.6°C Windspitzen (letzte Std)5.0 kmh (2.7 kts) um: 06:15
Windspitzen (seit Mitternacht)7.4 kmh (4.0 kts) um: 00:03 Höchstes Windmittel / Minute (seit Mitternacht)4.6 kmh (2.5 kts) um: 00:08
Regenmenge (letzte Std)0.0 mm Regenmenge (seit Mitternacht)0.0 mm (0.00 in.)---
Regenmenge diesen Monat 38.8 mm (1.53 in.) Regenmenge seit Jahresbeginn 38.8 mm (1.53 in.)
Höchste Regenmenge pro Minute (letzte Std)0.0 mm/min Höchste Regenmenge pro Stunde (letzte 6 Std)0.0 mm/stunde
Regenmenge Gestern 0.0 mm Taupunkt -3.8°C (Wet Bulb :-1.7°C )
Luftfeuchtigkeit 79 %, Humidex -3.6°C Aktueller Luftdruck (auf Meereshöhe bezogen)1029.5 hPa
Luftdrucktendenz -0.4 hPa (letzte Std) Trend (letzte 1 Std)gleichbleibend
Luftdrucktendenz (letzte 12 Std)+0.5 hPa Luftdrucktendenz (letzte 6 Std)-0.3 hPa
Maximum Soil temperature (seit Mitternacht) 17.2°C Minimum Soil temperature(seit Mitternacht)2.8°C
Current Soil temperature 17°C
Current Solar 0 W/m²
Maximum solar (seit Mitternacht) 0 W/m² Minimum solar(seit Mitternacht)0 W/m²
Current 00:00 hours of sunshine today, current sky: Nicht bestimmbar (Nachtzeit)/Dry/Overcast
Sunshine hours for the year: 1249:10 hrs Sunshine hours for the month: 18:59 hrs
Current evapotranspiration rate 0.1 mm per day. Yesterday's reading 0.3

Diese Seite wurde mit aktuellen Daten einer DAVIS VP Wetterstation erstellt. Drücken Sie bitte auf "Aktualisieren" oder "neu laden" um die neuesten Daten zu erhalten.


Latest Web Cam Image


Weather report/warning/Metars

Stuttgart-Echterdingen, Germany (EDDS) 48-41N 009-13E 391M
Jan 29, 2023 - 12:50 AM EST / 2023.01.29 0550 UTC
Wind: from the N (360 degrees) at 6 MPH (5 KT):0
Visibility: greater than 7 mile(s):0
Sky conditions: overcast
Temperature: 30 F (-1 C)
Windchill: 23 F (-5 C):1
Dew Point: 24 F (-4 C)
Relative Humidity: 80%
Pressure (altimeter): 30.33 in. Hg (1027 hPa)
ob: EDDS 290550Z AUTO 36005KT 9999 OVC018 M01/M04 Q1027 NOSIG
cycle: 6
Augsburg, Germany (EDMA) 48-26N 010-56E 463M
Jan 29, 2023 - 12:50 AM EST / 2023.01.29 0550 UTC
Wind: Variable at 2 MPH (2 KT):0
Visibility: greater than 7 mile(s):0
Sky conditions: overcast
Temperature: 28 F (-2 C)
Dew Point: 26 F (-3 C)
Relative Humidity: 92%
Pressure (altimeter): 30.33 in. Hg (1027 hPa)
ob: EDMA 290550Z AUTO VRB02KT 9999 // OVC020/// M02/M03 Q1027
cycle: 6
Nuernberg, Germany (EDDN) 49-30N 011-03E 318M
Jan 29, 2023 - 12:50 AM EST / 2023.01.29 0550 UTC
Wind: Variable at 1 MPH (1 KT):0
Visibility: greater than 7 mile(s):0
Sky conditions: overcast
Temperature: 26 F (-3 C)
Dew Point: 17 F (-8 C)
Relative Humidity: 68%
Pressure (altimeter): 30.36 in. Hg (1028 hPa)
ob: EDDN 290550Z AUTO VRB01KT 9999 OVC017 M03/M08 Q1028 NOSIG
cycle: 6
Berlin-Tegel, Germany (EDDT) 52-34N 013-19E 37M
Nov 09, 2020 - 01:50 AM EST / 2020.11.09 0650 UTC
Wind: from the E (090 degrees) at 7 MPH (6 KT) (direction variable):0
Visibility: 1 mile(s):0
Sky conditions: overcast
Weather: mist
Temperature: 42 F (6 C)
Dew Point: 41 F (5 C)
Relative Humidity: 93%
Pressure (altimeter): 30.33 in. Hg (1027 hPa)
ob: EDDT 090650Z 09006KT 050V120 3000 BR OVC003 06/05 Q1027
cycle: 7
Friedrichshafen, Germany (EDNY) 47-40N 009-31E 424M
Jan 29, 2023 - 12:50 AM EST / 2023.01.29 0550 UTC
Wind: from the NNE (030 degrees) at 5 MPH (4 KT):0
Visibility: greater than 7 mile(s):0
Sky conditions: mostly cloudy
Temperature: 32 F (0 C)
Windchill: 26 F (-3 C):1
Dew Point: 24 F (-4 C)
Relative Humidity: 74%
Pressure (altimeter): 30.30 in. Hg (1026 hPa)
ob: EDNY 290550Z AUTO 03004KT 9999 // FEW024/// SCT027/// BKN035/// M00/M04 Q1026
cycle: 6
Hamburg-Finkenwerder, Germany (EDHI) 53-32N 009-50E 13M
Jan 29, 2023 - 12:50 AM EST / 2023.01.29 0550 UTC
Wind: from the SW (220 degrees) at 8 MPH (7 KT):0
Visibility: 4 mile(s):0
Sky conditions: overcast
Temperature: 35 F (2 C)
Windchill: 28 F (-2 C):1
Dew Point: 33 F (1 C)
Relative Humidity: 93%
Pressure (altimeter): 30.24 in. Hg (1024 hPa)
ob: EDHI 290550Z AUTO 22007KT 7000 // FEW008/// SCT019/// OVC025/// 02/01 Q1024
cycle: 6
Amsterdam Airport Schiphol, Netherlands (EHAM) 52-18N 004-46E -2M
Jan 29, 2023 - 12:55 AM EST / 2023.01.29 0555 UTC
Wind: from the SSW (210 degrees) at 12 MPH (10 KT):0
Visibility: greater than 7 mile(s):0
Sky conditions: mostly cloudy
Temperature: 39 F (4 C)
Dew Point: 33 F (1 C)
Relative Humidity: 80%
Pressure (altimeter): 30.33 in. Hg (1027 hPa)
ob: EHAM 290555Z 21010KT 9999 FEW020 BKN023 04/01 Q1027 NOSIG
cycle: 6
Stockholm/Skavsta, Sweden (ESKN) 58-47N 016-55E
Jan 29, 2023 - 12:50 AM EST / 2023.01.29 0550 UTC
Wind: from the WSW (250 degrees) at 8 MPH (7 KT):0
Visibility: greater than 7 mile(s):0
Temperature: 32 F (0 C)
Windchill: 24 F (-4 C):1
Dew Point: 32 F (0 C)
Relative Humidity: 100%
Pressure (altimeter): 29.80 in. Hg (1009 hPa)
ob: ESKN 290550Z 25007KT CAVOK 00/M00 Q1009
cycle: 6
Ramstein, Germany (ETAR) 49-26N 007-36E 237M
Jan 28, 2023 - 11:55 PM EST / 2023.01.29 0455 UTC
Wind: Calm:0
Visibility: greater than 7 mile(s):0
Sky conditions: overcast
Temperature: 28.6 F (-1.9 C)
Dew Point: 21.0 F (-6.1 C)
Relative Humidity: 72%
Pressure (altimeter): 30.36 in. Hg (1028 hPa)
ob: ETAR 290455Z 00000KT 9999 OVC022 M02/M06 A3036 RMK AO2A CIG 021 RWY26 SLP294 T10191061 
cycle: 5
Laupheim, Germany (ETHL) 48-13N 009-55E 550M
Jan 29, 2023 - 12:20 AM EST / 2023.01.29 0520 UTC
Wind: from the NE (040 degrees) at 3 MPH (3 KT):0
Visibility: greater than 7 mile(s):0
Sky conditions: mostly cloudy
Temperature: 28 F (-2 C)
Dew Point: 24 F (-4 C)
Relative Humidity: 86%
Pressure (altimeter): 30.30 in. Hg (1026 hPa)
ob: ETHL 290520Z 04003KT 9999 BKN012 M02/M04 Q1026 GRN
cycle: 5
Gran Canaria - Canary Islands, Spain (GCLP) 27-56N 015-23W 47M
Jan 29, 2023 - 01:00 AM EST / 2023.01.29 0600 UTC
Wind: from the NW (310 degrees) at 7 MPH (6 KT):0
Visibility: greater than 7 mile(s):0
Sky conditions: mostly cloudy
Temperature: 59 F (15 C)
Dew Point: 51 F (11 C)
Relative Humidity: 76%
Pressure (altimeter): 30.06 in. Hg (1018 hPa)
ob: GCLP 290600Z 31006KT 9999 FEW040 BKN065 15/11 Q1018 NOSIG
cycle: 6
Hurguada, Egypt (HEGN) 27-09N 033-43E 14M
Jan 29, 2023 - 12:00 AM EST / 2023.01.29 0500 UTC
Wind: Calm:0
Visibility: 3 mile(s):0
Temperature: 59 F (15 C)
Dew Point: 53 F (12 C)
Relative Humidity: 82%
Pressure (altimeter): 29.91 in. Hg (1013 hPa)
ob: HEGN 290500Z 00000KT 6000 NSC 15/12 Q1013 NOSIG
cycle: 5
Chicago / Meigs, IL, United States (KCGX) 41-52N 087-36W
Jun 18, 2008 - 01:45 PM EDT / 2008.06.18 1745 UTC
Wind: from the NW (310 degrees) at 6 MPH (5 KT):0
Visibility: 15 mile(s):0
Sky conditions: overcast
Temperature: 57 F (14 C)
Dew Point: 51 F (11 C)
Relative Humidity: 82%
Pressure (altimeter): 29.89 in. Hg (1012 hPa)
ob: KCGX 181745Z 31005KT 15SM BKN014 OVC030 14/11 A2989
cycle: 18
Paris-Aeroport Charles De Gaulle, France (LFPG) 49-01N 002-32E 109M
Jan 29, 2023 - 01:00 AM EST / 2023.01.29 0600 UTC
Wind: from the NNE (030 degrees) at 5 MPH (4 KT):0
Visibility: 3 mile(s):0
Temperature: 28 F (-2 C)
Windchill: 23 F (-5 C):1
Dew Point: 24 F (-4 C)
Relative Humidity: 86%
Pressure (altimeter): 30.42 in. Hg (1030 hPa)
ob: LFPG 290600Z 03004KT 6000 NSC M02/M04 Q1030 TEMPO 4000 BR
cycle: 6
Hyeres, France (LFTH) 43-06N 006-09E 4M
Jan 29, 2023 - 01:00 AM EST / 2023.01.29 0600 UTC
Wind: from the NW (320 degrees) at 9 MPH (8 KT):0
Visibility: greater than 7 mile(s):0
Temperature: 37 F (3 C)
Dew Point: 30 F (-1 C)
Relative Humidity: 74%
Pressure (altimeter): 30.18 in. Hg (1022 hPa)
ob: LFTH 290600Z AUTO 32008KT CAVOK 03/M01 Q1022 NOSIG
cycle: 6



Die Wetterdaten werden alle 2 Minuten gespeichert, aber die Datenübertragung findet jede Minute statt. Die beste Ansicht wird in einer Auflösung von 800 x 600 und "True colour" erzielt. Linie zeigt die relative Luftfeuchtigkeit an.

Drücken Sie bitte auf "Aktualisieren" in Ihrem Browser, um die aktuellsten Daten zu erhalten.

Klicken Sie hier, um eine Übersicht der Durchschnitts- u. Extremwerte für den Monat zu erhalten
Created by "Weather Display" software version 10.37S at this start time/date 05:58:46 25.01.2023